createdAt,value
2018-08-30T00:01:20.116Z,15.30
2018-08-30T00:03:52.631Z,15.28
2018-08-30T00:06:28.727Z,15.24
2018-08-30T00:09:01.548Z,15.24
2018-08-30T00:11:35.381Z,15.26
2018-08-30T00:14:08.831Z,15.24
2018-08-30T00:16:42.454Z,15.20
2018-08-30T00:19:16.104Z,15.13
2018-08-30T00:21:48.650Z,15.07
2018-08-30T00:24:23.029Z,15.03
2018-08-30T00:26:56.369Z,15.03
2018-08-30T00:29:29.032Z,15.00
2018-08-30T00:32:01.828Z,14.96
2018-08-30T00:34:34.999Z,14.92
2018-08-30T00:37:07.696Z,14.88
2018-08-30T00:39:42.803Z,14.83
2018-08-30T00:42:15.214Z,14.80
2018-08-30T00:44:48.355Z,14.78
2018-08-30T00:47:22.518Z,14.74
2018-08-30T00:49:58.268Z,14.70
2018-08-30T00:52:30.682Z,14.69
2018-08-30T00:55:05.972Z,14.65
2018-08-30T00:57:40.113Z,14.68
2018-08-30T01:00:15.841Z,14.70
2018-08-30T01:02:48.945Z,14.64
2018-08-30T01:05:23.298Z,14.61
2018-08-30T01:07:56.113Z,14.65
2018-08-30T01:10:28.665Z,14.62
2018-08-30T01:13:01.110Z,14.59
2018-08-30T01:15:34.933Z,14.59
2018-08-30T01:18:07.457Z,14.61
2018-08-30T01:20:40.156Z,14.60
2018-08-30T01:23:14.043Z,14.62
2018-08-30T01:25:48.089Z,14.61
2018-08-30T01:28:20.744Z,14.62
2018-08-30T01:30:54.155Z,14.62
2018-08-30T01:33:27.162Z,14.64
2018-08-30T01:35:59.686Z,14.64
2018-08-30T01:38:33.343Z,14.65
2018-08-30T01:41:07.084Z,14.69
2018-08-30T01:43:40.877Z,14.71
2018-08-30T01:46:14.912Z,14.73
2018-08-30T01:48:47.981Z,14.74
2018-08-30T01:51:22.513Z,14.75
2018-08-30T01:53:57.581Z,14.76
2018-08-30T01:56:32.508Z,14.75
2018-08-30T01:59:05.837Z,14.76
2018-08-30T02:01:40.399Z,14.75
2018-08-30T02:04:13.498Z,14.76
2018-08-30T02:06:46.746Z,14.77
2018-08-30T02:09:20.348Z,14.81
2018-08-30T02:11:53.380Z,14.83
2018-08-30T02:14:26.492Z,14.82
2018-08-30T02:16:59.521Z,14.80
2018-08-30T02:19:32.339Z,14.80
2018-08-30T02:22:05.392Z,14.82
2018-08-30T02:24:39.007Z,14.82
2018-08-30T02:27:12.495Z,14.82
2018-08-30T02:29:46.482Z,14.82
2018-08-30T02:32:20.656Z,14.86
2018-08-30T02:34:53.468Z,14.92
2018-08-30T02:37:27.930Z,14.96
2018-08-30T02:40:01.398Z,14.92
2018-08-30T02:42:34.529Z,14.89
2018-08-30T02:45:08.464Z,14.88
2018-08-30T02:47:41.933Z,14.87
2018-08-30T02:50:14.513Z,14.87
2018-08-30T02:52:47.111Z,14.87
2018-08-30T02:55:19.918Z,14.87
2018-08-30T02:57:53.496Z,14.86
2018-08-30T03:00:25.956Z,14.86
2018-08-30T03:02:59.874Z,14.86
2018-08-30T03:05:32.353Z,14.86
2018-08-30T03:08:04.828Z,14.86
2018-08-30T03:10:37.682Z,14.86
2018-08-30T03:13:10.609Z,14.86
2018-08-30T03:15:43.006Z,14.84
2018-08-30T03:18:17.860Z,14.84
2018-08-30T03:20:50.449Z,14.83
2018-08-30T03:23:23.000Z,14.84
2018-08-30T03:25:55.804Z,14.89
2018-08-30T03:28:28.310Z,14.89
2018-08-30T03:31:01.307Z,14.88
2018-08-30T03:33:34.032Z,14.87
2018-08-30T03:36:06.394Z,14.91
2018-08-30T03:38:38.771Z,14.90
2018-08-30T03:41:11.409Z,14.87
2018-08-30T03:43:43.668Z,14.86
2018-08-30T03:46:15.940Z,14.84
2018-08-30T03:48:48.635Z,14.86
2018-08-30T03:51:25.404Z,14.84
2018-08-30T03:53:59.621Z,14.81
2018-08-30T03:56:32.338Z,14.80
2018-08-30T03:59:04.724Z,14.79
2018-08-30T04:01:36.997Z,14.77
2018-08-30T04:04:09.802Z,14.78
2018-08-30T04:06:42.036Z,14.77
2018-08-30T04:09:14.976Z,14.76
2018-08-30T04:11:47.723Z,14.75
2018-08-30T04:14:20.082Z,14.74
2018-08-30T04:16:52.318Z,14.73
2018-08-30T04:19:25.115Z,14.72
2018-08-30T04:21:57.354Z,14.72
2018-08-30T04:24:30.068Z,14.74
2018-08-30T04:27:04.744Z,14.76
2018-08-30T04:29:37.988Z,14.78
2018-08-30T04:32:10.277Z,14.79
2018-08-30T04:34:42.969Z,14.80
2018-08-30T04:37:16.099Z,14.79
2018-08-30T04:39:48.433Z,14.82
2018-08-30T04:42:22.126Z,14.83
2018-08-30T04:44:54.352Z,14.83
2018-08-30T04:47:27.601Z,14.84
2018-08-30T04:50:00.335Z,14.84
2018-08-30T04:52:32.640Z,14.86
2018-08-30T04:55:05.052Z,14.85
2018-08-30T04:57:37.307Z,14.86
2018-08-30T05:00:09.712Z,14.86
2018-08-30T05:02:43.709Z,14.88
2018-08-30T05:05:16.012Z,14.88
2018-08-30T05:07:48.804Z,14.87
2018-08-30T05:10:21.836Z,14.87
2018-08-30T05:12:55.978Z,14.87
2018-08-30T05:15:28.273Z,14.88
2018-08-30T05:18:04.091Z,14.86
2018-08-30T05:20:36.837Z,14.91
2018-08-30T05:23:09.126Z,14.90
2018-08-30T05:25:42.824Z,14.88
2018-08-30T05:28:15.209Z,14.88
2018-08-30T05:30:47.509Z,14.89
2018-08-30T05:33:22.801Z,14.90
2018-08-30T05:35:55.215Z,14.92
2018-08-30T05:38:27.621Z,14.92
2018-08-30T05:41:02.251Z,14.91
2018-08-30T05:43:36.080Z,14.91
2018-08-30T05:46:09.884Z,14.91
2018-08-30T05:48:42.912Z,14.95
2018-08-30T05:51:16.261Z,14.97
2018-08-30T05:53:48.540Z,14.99
2018-08-30T05:56:23.956Z,14.97
2018-08-30T05:58:56.234Z,15.02
2018-08-30T06:01:29.533Z,15.03
2018-08-30T06:04:08.275Z,15.04
2018-08-30T06:06:41.263Z,15.05
2018-08-30T06:09:15.142Z,15.06
2018-08-30T06:11:49.184Z,15.09
2018-08-30T06:14:22.121Z,15.08
2018-08-30T06:16:54.964Z,15.08
2018-08-30T06:19:27.770Z,15.09
2018-08-30T06:22:00.789Z,15.12
2018-08-30T06:24:34.440Z,15.13
2018-08-30T06:27:07.414Z,15.19
2018-08-30T06:29:39.693Z,15.17
2018-08-30T06:32:12.817Z,15.17
2018-08-30T06:34:46.025Z,15.18
2018-08-30T06:37:19.240Z,15.22
2018-08-30T06:39:51.589Z,15.30
2018-08-30T06:42:24.967Z,15.38
2018-08-30T06:44:57.220Z,15.42
2018-08-30T06:47:30.401Z,15.43
2018-08-30T06:50:04.768Z,15.42
2018-08-30T06:52:45.081Z,15.42
2018-08-30T06:55:19.451Z,15.46
2018-08-30T06:57:53.309Z,15.54
2018-08-30T07:00:26.070Z,15.59
2018-08-30T07:02:59.145Z,15.73
2018-08-30T07:05:31.450Z,15.83
2018-08-30T07:08:03.896Z,15.87
2018-08-30T07:10:36.172Z,15.83
2018-08-30T07:13:09.122Z,15.80
2018-08-30T07:15:41.496Z,15.82
2018-08-30T07:18:13.928Z,15.93
2018-08-30T07:20:47.764Z,16.00
2018-08-30T07:23:21.466Z,16.05
2018-08-30T07:25:54.077Z,16.11
2018-08-30T07:28:26.375Z,16.12
2018-08-30T07:31:01.193Z,16.12
2018-08-30T07:33:35.270Z,16.12
2018-08-30T07:36:07.620Z,16.21
2018-08-30T07:38:42.690Z,16.27
2018-08-30T07:41:15.301Z,16.21
2018-08-30T07:43:51.491Z,16.14
2018-08-30T07:46:26.764Z,16.12
2018-08-30T07:48:59.803Z,16.21
2018-08-30T07:51:33.387Z,16.29
2018-08-30T07:54:07.781Z,16.34
2018-08-30T07:56:40.400Z,16.37
2018-08-30T07:59:13.514Z,16.48
2018-08-30T08:09:54.444Z,17.80
2018-08-30T08:12:28.726Z,18.19
2018-08-30T08:15:06.039Z,17.85
2018-08-30T08:17:39.565Z,17.51
2018-08-30T08:20:13.684Z,17.13
2018-08-30T08:22:50.041Z,16.83
2018-08-30T08:25:32.354Z,16.84
2018-08-30T08:28:07.583Z,17.31
2018-08-30T08:30:40.976Z,17.77
2018-08-30T08:33:13.518Z,18.23
2018-08-30T08:35:47.067Z,18.53
2018-08-30T08:38:21.725Z,18.86
2018-08-30T08:40:55.300Z,19.18
2018-08-30T08:43:28.051Z,19.25
2018-08-30T08:46:00.723Z,18.94
2018-08-30T08:48:34.609Z,19.11
2018-08-30T08:51:11.494Z,19.33
2018-08-30T08:53:48.668Z,19.14
2018-08-30T08:56:23.076Z,19.24
2018-08-30T08:58:57.239Z,18.85
2018-08-30T09:01:29.515Z,18.49
2018-08-30T09:04:01.904Z,18.30
2018-08-30T09:06:34.757Z,18.17
2018-08-30T09:09:10.760Z,18.28
2018-08-30T09:11:44.315Z,18.18
2018-08-30T09:14:19.165Z,17.99
2018-08-30T09:16:52.649Z,18.37
2018-08-30T09:19:25.548Z,18.93
2018-08-30T09:21:58.677Z,18.96
2018-08-30T09:24:31.092Z,18.53
2018-08-30T09:27:04.534Z,18.15
2018-08-30T09:29:37.281Z,17.95
2018-08-30T09:32:11.017Z,17.84
2018-08-30T09:34:44.783Z,17.95
2018-08-30T09:37:35.673Z,18.44
2018-08-30T09:40:10.332Z,18.92
2018-08-30T09:42:42.668Z,19.41
2018-08-30T09:45:15.886Z,19.71
2018-08-30T09:47:48.550Z,20.17
2018-08-30T09:50:21.590Z,19.99
2018-08-30T09:52:54.841Z,19.82
2018-08-30T09:55:27.121Z,20.00
2018-08-30T09:58:02.310Z,20.18
2018-08-30T10:00:41.154Z,20.48
2018-08-30T10:03:13.672Z,20.67
2018-08-30T10:05:47.119Z,20.97
2018-08-30T10:08:21.635Z,20.93
2018-08-30T10:10:54.761Z,21.06
2018-08-30T10:13:29.027Z,20.85
2018-08-30T10:16:01.752Z,20.75
2018-08-30T10:18:35.514Z,20.54
2018-08-30T10:21:09.098Z,20.27
2018-08-30T10:23:41.561Z,20.59
2018-08-30T10:26:13.837Z,20.64
2018-08-30T10:28:48.359Z,20.39
2018-08-30T10:31:20.677Z,19.99
2018-08-30T10:33:53.561Z,19.75
2018-08-30T10:36:27.486Z,19.53
2018-08-30T10:39:00.750Z,19.23
2018-08-30T10:41:34.264Z,19.08
2018-08-30T10:44:08.007Z,19.09
2018-08-30T10:46:40.860Z,19.08
2018-08-30T10:49:17.858Z,19.23
2018-08-30T10:51:50.574Z,19.70
2018-08-30T10:54:25.689Z,20.56
2018-08-30T10:56:59.197Z,21.05
2018-08-30T10:59:33.304Z,21.39
2018-08-30T11:02:06.126Z,21.86
2018-08-30T11:04:39.392Z,22.25
2018-08-30T11:07:13.917Z,22.21
2018-08-30T11:09:46.714Z,22.21
2018-08-30T11:12:19.959Z,22.26
2018-08-30T11:14:53.439Z,21.85
2018-08-30T11:17:28.625Z,21.53
2018-08-30T11:20:02.089Z,21.47
2018-08-30T11:22:40.635Z,21.38
2018-08-30T11:25:23.349Z,20.93
2018-08-30T11:27:58.743Z,20.45
2018-08-30T11:30:32.314Z,20.21
2018-08-30T11:33:05.267Z,20.33
2018-08-30T11:35:38.044Z,20.74
2018-08-30T11:38:12.242Z,20.64
2018-08-30T11:40:46.019Z,20.70
2018-08-30T11:43:19.356Z,20.89
2018-08-30T11:45:51.890Z,21.27
2018-08-30T11:48:26.087Z,21.65
2018-08-30T11:51:01.945Z,21.66
2018-08-30T11:53:36.283Z,21.67
2018-08-30T11:56:11.230Z,21.52
2018-08-30T11:58:44.792Z,21.40
2018-08-30T12:01:20.409Z,21.62
2018-08-30T12:03:55.766Z,21.91
2018-08-30T12:06:33.590Z,21.45
2018-08-30T12:09:10.010Z,21.01
2018-08-30T12:11:46.919Z,20.94
2018-08-30T12:14:20.706Z,21.22
2018-08-30T12:16:53.211Z,21.49
2018-08-30T12:19:26.330Z,21.58
2018-08-30T12:21:59.928Z,21.67
2018-08-30T12:24:32.696Z,21.87
2018-08-30T12:27:07.827Z,21.94
2018-08-30T12:29:41.771Z,21.54
2018-08-30T12:32:15.113Z,21.09
2018-08-30T12:34:50.402Z,20.78
2018-08-30T12:37:23.578Z,20.58
2018-08-30T12:39:59.559Z,20.69
2018-08-30T12:42:33.566Z,20.99
2018-08-30T12:45:07.852Z,21.29
2018-08-30T12:47:41.748Z,21.36
2018-08-30T12:50:14.139Z,21.54
2018-08-30T12:52:46.567Z,21.62
2018-08-30T12:55:21.409Z,21.71
2018-08-30T12:57:54.586Z,21.68
2018-08-30T13:00:27.485Z,21.17
2018-08-30T13:03:01.291Z,20.89
2018-08-30T13:05:35.490Z,20.83
2018-08-30T13:08:09.140Z,20.97
2018-08-30T13:10:44.792Z,21.20
2018-08-30T13:13:17.930Z,21.57
2018-08-30T13:16:06.632Z,21.71
2018-08-30T13:18:38.885Z,21.68
2018-08-30T13:21:11.192Z,21.86
2018-08-30T13:23:45.118Z,22.00
2018-08-30T13:26:19.030Z,21.94
2018-08-30T13:28:52.152Z,21.92
2018-08-30T13:31:26.873Z,22.00
2018-08-30T13:34:06.139Z,22.28
2018-08-30T13:36:43.290Z,22.28
2018-08-30T13:39:17.868Z,21.98
2018-08-30T13:41:52.230Z,21.97
2018-08-30T13:44:32.068Z,22.39
2018-08-30T13:47:08.028Z,22.98
2018-08-30T13:49:44.490Z,23.00
2018-08-30T13:52:18.842Z,22.74
2018-08-30T13:54:54.651Z,22.73
2018-08-30T13:57:30.123Z,22.83
2018-08-30T14:00:10.325Z,22.74
2018-08-30T14:02:53.830Z,22.66
2018-08-30T14:05:29.176Z,22.78
2018-08-30T14:08:04.552Z,22.97
2018-08-30T14:10:38.674Z,22.85
2018-08-30T14:13:13.818Z,22.98
2018-08-30T14:15:46.057Z,23.33
2018-08-30T14:18:22.428Z,23.74
2018-08-30T14:20:55.573Z,23.83
2018-08-30T14:23:28.089Z,23.77
2018-08-30T14:26:00.918Z,23.85
2018-08-30T14:28:35.432Z,23.87
2018-08-30T14:31:10.345Z,23.74
2018-08-30T14:33:43.751Z,23.64
2018-08-30T14:36:17.042Z,23.47
2018-08-30T14:38:49.512Z,23.57
2018-08-30T14:41:25.210Z,23.49
2018-08-30T14:43:59.530Z,23.34
2018-08-30T14:46:36.295Z,23.09
2018-08-30T14:49:09.764Z,22.56
2018-08-30T14:51:46.128Z,22.24
2018-08-30T14:54:19.885Z,22.04
2018-08-30T14:56:53.853Z,22.08
2018-08-30T14:59:30.251Z,22.06
2018-08-30T15:02:03.225Z,21.97
2018-08-30T15:04:36.227Z,21.92
2018-08-30T15:07:10.970Z,21.90
2018-08-30T15:09:43.279Z,21.84
2018-08-30T15:12:16.469Z,22.13
2018-08-30T15:14:49.262Z,22.61
2018-08-30T15:17:26.281Z,22.78
2018-08-30T15:20:02.880Z,23.05
2018-08-30T15:22:35.391Z,23.35
2018-08-30T15:25:09.543Z,23.31
2018-08-30T15:27:47.696Z,23.08
2018-08-30T15:30:21.667Z,22.91
2018-08-30T15:32:55.702Z,22.76
2018-08-30T15:35:29.804Z,22.90
2018-08-30T15:38:03.299Z,22.83
2018-08-30T15:40:38.760Z,22.91
2018-08-30T15:43:19.679Z,23.23
2018-08-30T15:45:53.837Z,23.53
2018-08-30T15:48:27.354Z,23.42
2018-08-30T15:51:00.653Z,23.68
2018-08-30T15:53:33.001Z,23.72
2018-08-30T15:56:07.543Z,23.78
2018-08-30T15:58:41.983Z,23.84
2018-08-30T16:01:15.818Z,23.80
2018-08-30T16:03:50.656Z,23.73
2018-08-30T16:06:24.363Z,23.73
2018-08-30T16:08:57.677Z,23.61
2018-08-30T16:11:32.049Z,23.30
2018-08-30T16:14:05.880Z,23.30
2018-08-30T16:16:39.244Z,23.58
2018-08-30T16:19:12.621Z,23.84
2018-08-30T16:21:45.087Z,24.02
2018-08-30T16:24:18.145Z,24.21
2018-08-30T16:26:51.245Z,23.98
2018-08-30T16:29:23.623Z,23.78
2018-08-30T16:31:59.769Z,23.39
2018-08-30T16:34:40.539Z,23.00
2018-08-30T16:37:13.729Z,22.69
2018-08-30T16:39:46.406Z,22.33
2018-08-30T16:42:18.699Z,22.17
2018-08-30T16:44:50.948Z,22.04
2018-08-30T16:47:25.020Z,22.16
2018-08-30T16:49:59.404Z,22.28
2018-08-30T16:52:33.012Z,22.36
2018-08-30T16:55:07.553Z,22.33
2018-08-30T16:57:41.277Z,22.42
2018-08-30T17:00:18.915Z,22.49
2018-08-30T17:02:52.566Z,22.31
2018-08-30T17:05:26.223Z,21.98
2018-08-30T17:08:03.055Z,21.66
2018-08-30T17:10:36.739Z,21.34
2018-08-30T17:13:10.673Z,21.05
2018-08-30T17:15:44.113Z,20.86
2018-08-30T17:18:18.691Z,20.65
2018-08-30T17:20:57.274Z,20.50
2018-08-30T17:23:33.254Z,20.36
2018-08-30T17:26:07.820Z,20.22
2018-08-30T17:28:45.316Z,20.06
2018-08-30T17:31:20.109Z,19.87
2018-08-30T17:33:57.180Z,19.72
2018-08-30T17:36:30.196Z,19.58
2018-08-30T17:39:05.594Z,19.39
2018-08-30T17:41:40.293Z,19.21
2018-08-30T17:44:20.546Z,19.03
2018-08-30T17:46:53.214Z,18.86
2018-08-30T17:49:27.037Z,18.70
2018-08-30T17:51:59.887Z,18.58
2018-08-30T17:54:33.580Z,18.48
2018-08-30T17:57:07.016Z,18.34
2018-08-30T17:59:41.421Z,18.20
2018-08-30T18:02:17.814Z,18.10
2018-08-30T18:04:53.061Z,18.03
2018-08-30T18:07:27.128Z,17.91
2018-08-30T18:10:02.682Z,17.79
2018-08-30T18:12:40.469Z,17.66
2018-08-30T18:15:15.860Z,17.54
2018-08-30T18:20:28.208Z,17.47
2018-08-30T18:23:03.331Z,17.45
2018-08-30T18:25:37.368Z,17.44
2018-08-30T18:28:12.038Z,17.44
2018-08-30T18:31:01.740Z,17.44
2018-08-30T18:33:35.185Z,17.49
2018-08-30T18:36:11.878Z,17.50
2018-08-30T18:38:46.674Z,17.44
2018-08-30T18:41:20.637Z,17.37
2018-08-30T18:43:53.608Z,17.31
2018-08-30T18:46:26.562Z,17.27
2018-08-30T18:49:01.718Z,17.23
2018-08-30T18:51:36.550Z,17.17
2018-08-30T18:54:08.957Z,17.11
2018-08-30T18:56:45.018Z,17.04
2018-08-30T18:59:22.704Z,16.95
2018-08-30T19:01:57.977Z,16.84
2018-08-30T19:04:32.634Z,16.74
2018-08-30T19:07:06.037Z,16.64
2018-08-30T19:09:44.237Z,16.57
2018-08-30T19:12:17.792Z,16.53
2018-08-30T19:14:51.149Z,16.52
2018-08-30T19:17:39.257Z,16.51
2018-08-30T19:20:14.644Z,16.50
2018-08-30T19:22:48.185Z,16.52
2018-08-30T19:25:26.318Z,16.52
2018-08-30T19:28:02.169Z,16.47
2018-08-30T19:30:36.567Z,16.38
2018-08-30T19:33:10.763Z,16.34
2018-08-30T19:35:55.442Z,16.28
2018-08-30T19:38:30.848Z,16.17
2018-08-30T19:41:11.904Z,16.08
2018-08-30T19:43:46.883Z,15.96
2018-08-30T19:46:21.749Z,15.85
2018-08-30T19:48:54.660Z,15.69
2018-08-30T19:51:27.349Z,15.51
2018-08-30T19:54:01.617Z,15.39
2018-08-30T19:56:37.075Z,15.23
2018-08-30T19:59:10.550Z,15.07
2018-08-30T20:01:43.170Z,14.90
2018-08-30T20:04:17.802Z,14.79
2018-08-30T20:06:53.703Z,14.68
2018-08-30T20:09:30.777Z,14.60
2018-08-30T20:12:11.286Z,14.56
2018-08-30T20:14:46.257Z,14.43
2018-08-30T20:17:19.129Z,14.35
2018-08-30T20:19:53.964Z,14.34
2018-08-30T20:22:27.574Z,14.36
2018-08-30T20:25:01.250Z,14.27
2018-08-30T20:27:36.006Z,14.12
2018-08-30T20:30:08.018Z,13.92
2018-08-30T20:32:42.178Z,13.75
2018-08-30T20:35:16.045Z,13.68
2018-08-30T20:37:48.552Z,13.73
2018-08-30T20:40:21.145Z,13.76
2018-08-30T20:42:53.963Z,13.73
2018-08-30T20:45:26.905Z,13.74
2018-08-30T20:48:01.197Z,13.74
2018-08-30T20:50:36.886Z,13.75
2018-08-30T20:53:09.784Z,13.80
2018-08-30T20:55:43.427Z,13.79
2018-08-30T20:58:23.957Z,13.79
2018-08-30T21:01:02.124Z,13.78
2018-08-30T21:03:34.817Z,13.69
2018-08-30T21:06:14.112Z,13.54
2018-08-30T21:08:48.424Z,13.33
2018-08-30T21:11:21.770Z,13.14
2018-08-30T21:13:56.329Z,12.97
2018-08-30T21:16:30.381Z,12.79
2018-08-30T21:19:04.035Z,12.64
2018-08-30T21:21:36.965Z,12.49
2018-08-30T21:24:09.976Z,12.37
2018-08-30T21:26:42.844Z,12.25
2018-08-30T21:29:19.281Z,12.16
2018-08-30T21:31:54.488Z,12.10
2018-08-30T21:34:27.412Z,12.03
2018-08-30T21:37:03.008Z,12.04
2018-08-30T21:39:36.228Z,12.00
2018-08-30T21:42:08.670Z,11.92
2018-08-30T21:44:43.860Z,11.91
2018-08-30T21:47:17.582Z,11.93
2018-08-30T21:49:49.952Z,11.82
2018-08-30T21:52:24.093Z,11.75
2018-08-30T21:54:56.940Z,11.65
2018-08-30T21:57:29.301Z,11.55
2018-08-30T22:00:05.360Z,11.61
2018-08-30T22:02:37.740Z,11.60
2018-08-30T22:05:10.085Z,11.63
2018-08-30T22:07:44.642Z,11.79
2018-08-30T22:10:17.596Z,11.85
2018-08-30T22:12:51.479Z,11.93
2018-08-30T22:15:26.621Z,11.98
2018-08-30T22:18:01.071Z,11.98
2018-08-30T22:20:33.986Z,11.95
2018-08-30T22:23:07.788Z,12.04
2018-08-30T22:25:40.862Z,12.09
2018-08-30T22:28:13.804Z,12.11
2018-08-30T22:30:47.500Z,11.98
2018-08-30T22:33:19.777Z,11.81
2018-08-30T22:35:52.185Z,11.76
2018-08-30T22:38:24.887Z,11.63
2018-08-30T22:40:57.887Z,11.44
2018-08-30T22:43:30.400Z,11.31
2018-08-30T22:46:03.084Z,11.19
2018-08-30T22:48:37.558Z,11.11
2018-08-30T22:51:12.749Z,11.04
2018-08-30T22:53:46.476Z,10.98
2018-08-30T22:56:19.600Z,10.89
2018-08-30T22:58:52.181Z,10.80
2018-08-30T23:01:25.241Z,10.72
2018-08-30T23:03:58.159Z,10.67
2018-08-30T23:06:31.296Z,10.65
2018-08-30T23:09:05.825Z,10.63
2018-08-30T23:11:39.283Z,10.59
2018-08-30T23:14:14.355Z,10.48
2018-08-30T23:16:47.415Z,10.42
2018-08-30T23:19:24.688Z,10.40
2018-08-30T23:21:57.173Z,10.38
2018-08-30T23:24:30.527Z,10.35
2018-08-30T23:27:03.261Z,10.35
2018-08-30T23:29:36.554Z,10.37
2018-08-30T23:32:09.155Z,10.53
2018-08-30T23:34:42.165Z,10.54
2018-08-30T23:37:14.964Z,10.37
2018-08-30T23:39:47.757Z,10.25
2018-08-30T23:42:21.695Z,10.28
2018-08-30T23:44:54.390Z,10.26
2018-08-30T23:47:26.962Z,10.25
2018-08-30T23:50:00.232Z,10.32
2018-08-30T23:52:32.887Z,10.30
2018-08-30T23:55:05.721Z,10.36
